createdAt,value
2018-11-06T00:00:29.362Z,9.60
2018-11-06T00:03:02.947Z,9.70
2018-11-06T00:05:31.160Z,9.60
2018-11-06T00:07:59.286Z,9.50
2018-11-06T00:10:27.418Z,9.50
2018-11-06T00:12:55.536Z,9.50
2018-11-06T00:15:23.693Z,9.50
2018-11-06T00:17:51.819Z,9.50
2018-11-06T00:20:20.000Z,9.40
2018-11-06T00:22:48.141Z,9.30
2018-11-06T00:25:16.316Z,9.30
2018-11-06T00:27:44.486Z,9.30
2018-11-06T00:30:13.665Z,9.30
2018-11-06T00:32:42.348Z,9.20
2018-11-06T00:35:11.659Z,9.20
2018-11-06T00:37:40.677Z,9.20
2018-11-06T00:40:08.836Z,9.10
2018-11-06T00:42:37.152Z,9.00
2018-11-06T00:47:33.993Z,9.00
2018-11-06T00:50:02.189Z,9.00
2018-11-06T00:52:30.349Z,8.90
2018-11-06T00:54:58.479Z,8.90
2018-11-06T00:57:26.612Z,8.80
2018-11-06T00:59:54.867Z,8.80
2018-11-06T01:02:23.460Z,8.70
2018-11-06T01:04:51.593Z,8.70
2018-11-06T01:07:19.749Z,8.80
2018-11-06T01:09:54.603Z,8.80
2018-11-06T01:12:22.741Z,8.70
2018-11-06T01:14:50.869Z,8.60
2018-11-06T01:17:19.016Z,8.60
2018-11-06T01:19:47.144Z,8.70
2018-11-06T01:22:21.676Z,8.70
2018-11-06T01:24:49.808Z,8.70
2018-11-06T01:27:17.960Z,8.80
2018-11-06T01:29:46.096Z,8.70
2018-11-06T01:32:14.220Z,8.70
2018-11-06T01:34:42.380Z,8.70
2018-11-06T01:37:10.516Z,8.60
2018-11-06T01:39:38.683Z,8.60
2018-11-06T01:42:06.834Z,8.60
2018-11-06T01:44:34.988Z,8.40
2018-11-06T01:47:03.159Z,8.20
2018-11-06T01:49:31.308Z,8.20
2018-11-06T01:51:59.447Z,8.20
2018-11-06T01:54:34.204Z,8.20
2018-11-06T01:57:02.348Z,8.10
2018-11-06T01:59:30.527Z,8.00
2018-11-06T02:01:58.724Z,8.10
2018-11-06T02:04:26.855Z,8.10
2018-11-06T02:09:22.900Z,8.20
2018-11-06T02:11:51.028Z,8.10
2018-11-06T02:14:19.179Z,8.10
2018-11-06T02:16:47.320Z,8.20
2018-11-06T02:19:15.440Z,8.10
2018-11-06T02:21:43.579Z,8.10
2018-11-06T02:24:11.737Z,8.10
2018-11-06T02:26:39.891Z,8.10
2018-11-06T02:29:08.039Z,8.10
2018-11-06T02:31:36.184Z,8.10
2018-11-06T02:34:04.438Z,8.10
2018-11-06T02:36:32.584Z,7.90
2018-11-06T02:39:00.726Z,7.70
2018-11-06T02:41:28.855Z,7.60
2018-11-06T02:43:56.996Z,7.50
2018-11-06T02:46:25.166Z,7.50
2018-11-06T02:48:53.387Z,7.40
2018-11-06T02:51:21.538Z,7.40
2018-11-06T02:53:49.687Z,7.30
2018-11-06T02:56:17.804Z,7.40
2018-11-06T02:58:45.967Z,7.40
2018-11-06T03:01:14.100Z,7.50
2018-11-06T03:03:42.551Z,7.70
2018-11-06T03:06:12.193Z,7.80
2018-11-06T03:08:40.572Z,7.90
2018-11-06T03:11:08.927Z,7.90
2018-11-06T03:13:37.198Z,7.90
2018-11-06T03:16:05.476Z,7.90
2018-11-06T03:18:33.596Z,7.80
2018-11-06T03:21:01.748Z,7.80
2018-11-06T03:23:29.902Z,7.60
2018-11-06T03:25:58.040Z,7.60
2018-11-06T03:28:26.208Z,7.60
2018-11-06T03:30:54.336Z,7.60
2018-11-06T03:33:22.461Z,7.60
2018-11-06T03:35:50.597Z,7.70
2018-11-06T03:38:18.735Z,7.90
2018-11-06T03:40:46.876Z,7.90
2018-11-06T03:43:15.017Z,7.90
2018-11-06T03:45:43.159Z,7.80
2018-11-06T03:48:11.337Z,7.60
2018-11-06T03:50:39.428Z,7.60
2018-11-06T03:53:07.557Z,7.50
2018-11-06T03:55:36.200Z,7.80
2018-11-06T03:58:04.331Z,7.80
2018-11-06T04:00:32.479Z,7.80
2018-11-06T04:03:00.617Z,7.70
2018-11-06T04:05:28.774Z,7.80
2018-11-06T04:07:56.878Z,7.90
2018-11-06T04:10:25.057Z,7.90
2018-11-06T04:12:53.192Z,7.90
2018-11-06T04:15:21.345Z,7.80
2018-11-06T04:17:49.465Z,7.80
2018-11-06T04:20:17.608Z,7.80
2018-11-06T04:22:45.732Z,7.80
2018-11-06T04:25:13.847Z,7.70
2018-11-06T04:27:41.979Z,7.70
2018-11-06T04:30:11.737Z,7.70
2018-11-06T04:32:40.383Z,7.70
2018-11-06T04:35:08.987Z,7.50
2018-11-06T04:37:37.580Z,7.50
2018-11-06T04:40:07.177Z,7.60
2018-11-06T04:42:35.426Z,7.70
2018-11-06T04:45:03.582Z,7.60
2018-11-06T04:47:31.752Z,7.60
2018-11-06T04:50:00.066Z,7.70
2018-11-06T04:52:28.196Z,7.70
2018-11-06T04:54:56.328Z,7.70
2018-11-06T04:57:24.477Z,7.70
2018-11-06T04:59:52.596Z,7.80
2018-11-06T05:02:20.729Z,7.80
2018-11-06T05:04:48.873Z,7.80
2018-11-06T05:07:17.023Z,7.70
2018-11-06T05:09:45.203Z,7.70
2018-11-06T05:12:13.325Z,7.60
2018-11-06T05:14:41.435Z,7.60
2018-11-06T05:17:09.582Z,7.60
2018-11-06T05:19:38.007Z,7.60
2018-11-06T05:22:06.753Z,7.70
2018-11-06T05:24:34.912Z,7.70
2018-11-06T05:27:04.300Z,7.70
2018-11-06T05:29:32.625Z,7.60
2018-11-06T05:32:00.816Z,7.50
2018-11-06T05:34:28.949Z,7.50
2018-11-06T05:36:57.131Z,7.50
2018-11-06T05:39:25.326Z,7.50
2018-11-06T05:41:53.499Z,7.30
2018-11-06T05:44:21.631Z,7.20
2018-11-06T05:46:49.775Z,7.10
2018-11-06T05:49:17.914Z,7.10
2018-11-06T05:51:46.048Z,6.90
2018-11-06T05:54:14.198Z,6.90
2018-11-06T05:56:42.524Z,7.00
2018-11-06T05:59:10.657Z,7.10
2018-11-06T06:01:38.810Z,7.10
2018-11-06T06:04:06.940Z,7.10
2018-11-06T06:06:35.137Z,7.20
2018-11-06T06:09:03.963Z,7.10
2018-11-06T06:11:32.160Z,7.10
2018-11-06T06:14:00.292Z,7.00
2018-11-06T06:16:28.609Z,7.10
2018-11-06T06:18:56.755Z,7.20
2018-11-06T06:21:24.922Z,7.20
2018-11-06T06:23:53.180Z,7.20
2018-11-06T06:26:21.319Z,7.10
2018-11-06T06:28:49.488Z,7.00
2018-11-06T06:31:17.685Z,7.00
2018-11-06T06:33:45.816Z,7.00
2018-11-06T06:36:13.997Z,7.10
2018-11-06T06:38:42.232Z,7.10
2018-11-06T06:41:10.397Z,7.10
2018-11-06T06:43:38.554Z,7.10
2018-11-06T06:46:06.804Z,7.10
2018-11-06T06:48:34.973Z,7.20
2018-11-06T06:51:03.164Z,7.10
2018-11-06T06:53:31.362Z,7.10
2018-11-06T06:55:59.570Z,7.10
2018-11-06T06:58:27.781Z,7.20
2018-11-06T07:00:55.973Z,7.50
2018-11-06T07:03:24.132Z,7.50
2018-11-06T07:05:52.304Z,7.50
2018-11-06T07:08:20.480Z,7.40
2018-11-06T07:10:48.691Z,7.40
2018-11-06T07:13:16.837Z,7.50
2018-11-06T07:15:44.993Z,7.50
2018-11-06T07:18:13.199Z,7.50
2018-11-06T07:20:41.368Z,7.20
2018-11-06T07:23:09.596Z,7.20
2018-11-06T07:25:37.762Z,7.20
2018-11-06T07:28:05.970Z,7.30
2018-11-06T07:30:34.142Z,7.30
2018-11-06T07:33:02.296Z,7.30
2018-11-06T07:35:30.592Z,7.40
2018-11-06T07:40:26.553Z,7.40
2018-11-06T07:42:54.732Z,7.50
2018-11-06T07:45:22.890Z,7.50
2018-11-06T07:47:51.073Z,7.60
2018-11-06T07:50:19.302Z,7.60
2018-11-06T07:52:47.377Z,7.60
2018-11-06T07:55:16.710Z,7.70
2018-11-06T07:57:44.842Z,7.70
2018-11-06T08:00:15.604Z,7.70
2018-11-06T08:02:44.820Z,7.70
2018-11-06T08:05:13.079Z,7.70
2018-11-06T08:07:41.247Z,7.70
2018-11-06T08:10:10.383Z,7.70
2018-11-06T08:12:39.182Z,7.80
2018-11-06T08:15:08.115Z,7.80
2018-11-06T08:17:36.210Z,7.80
2018-11-06T08:20:04.488Z,7.80
2018-11-06T08:22:39.625Z,7.90
2018-11-06T08:25:09.356Z,8.00
2018-11-06T08:27:37.976Z,8.00
2018-11-06T08:30:06.744Z,8.00
2018-11-06T08:32:35.373Z,8.10
2018-11-06T08:35:03.697Z,8.10
2018-11-06T08:37:31.846Z,8.20
2018-11-06T08:39:59.977Z,8.30
2018-11-06T08:42:28.180Z,8.50
2018-11-06T08:44:56.272Z,8.50
2018-11-06T08:47:24.409Z,8.50
2018-11-06T08:49:52.556Z,8.70
2018-11-06T08:52:20.736Z,8.70
2018-11-06T08:54:48.880Z,8.90
2018-11-06T08:57:17.000Z,8.90
2018-11-06T08:59:45.165Z,8.90
2018-11-06T09:02:13.348Z,9.00
2018-11-06T09:04:41.496Z,9.00
2018-11-06T09:07:09.662Z,9.10
2018-11-06T09:09:37.809Z,9.10
2018-11-06T09:12:06.048Z,9.10
2018-11-06T09:14:34.220Z,9.20
2018-11-06T09:17:02.432Z,9.30
2018-11-06T09:19:30.529Z,9.30
2018-11-06T09:21:58.728Z,9.30
2018-11-06T09:24:26.875Z,9.30
2018-11-06T09:26:55.135Z,9.40
2018-11-06T09:29:23.355Z,9.40
2018-11-06T09:31:51.532Z,9.50
2018-11-06T09:34:19.680Z,9.60
2018-11-06T09:36:47.860Z,9.60
2018-11-06T09:39:16.033Z,9.80
2018-11-06T09:41:44.187Z,9.90
2018-11-06T09:44:12.331Z,10.10
2018-11-06T09:46:40.583Z,10.10
2018-11-06T09:49:08.718Z,10.30
2018-11-06T09:51:37.232Z,10.30
2018-11-06T09:54:05.751Z,10.30
2018-11-06T09:56:34.021Z,10.30
2018-11-06T09:59:02.222Z,10.30
2018-11-06T10:01:30.348Z,10.40
2018-11-06T10:03:58.599Z,10.30
2018-11-06T10:06:26.906Z,10.40
2018-11-06T10:08:54.922Z,10.40
2018-11-06T10:11:23.145Z,10.40
2018-11-06T10:13:51.246Z,10.60
2018-11-06T10:16:19.523Z,10.60
2018-11-06T10:18:47.808Z,10.70
2018-11-06T10:21:15.965Z,10.80
2018-11-06T10:23:44.160Z,10.80
2018-11-06T10:26:12.302Z,10.90
2018-11-06T10:28:40.505Z,11.00
2018-11-06T10:31:08.828Z,11.20
2018-11-06T10:33:36.982Z,11.20
2018-11-06T10:36:05.209Z,11.20
2018-11-06T10:38:33.349Z,11.30
2018-11-06T10:41:01.607Z,11.30
2018-11-06T10:43:29.910Z,11.40
2018-11-06T10:45:58.071Z,11.40
2018-11-06T10:48:26.282Z,11.50
2018-11-06T10:50:54.443Z,11.50
2018-11-06T10:53:22.899Z,11.60
2018-11-06T10:55:51.078Z,11.70
2018-11-06T10:58:19.281Z,11.70
2018-11-06T11:00:52.978Z,11.90
2018-11-06T11:03:33.503Z,11.90
2018-11-06T11:06:01.800Z,12.10
2018-11-06T11:08:29.965Z,12.10
2018-11-06T11:10:58.458Z,12.20
2018-11-06T11:13:26.689Z,12.20
2018-11-06T11:15:55.106Z,12.40
2018-11-06T11:18:23.384Z,12.50
2018-11-06T11:20:51.552Z,12.50
2018-11-06T11:23:19.721Z,12.60
2018-11-06T11:25:48.027Z,12.60
2018-11-06T11:28:16.279Z,12.60
2018-11-06T11:30:44.631Z,12.60
2018-11-06T11:33:12.842Z,12.70
2018-11-06T11:35:41.100Z,12.70
2018-11-06T11:38:09.489Z,12.70
2018-11-06T11:40:37.709Z,12.70
2018-11-06T11:43:05.907Z,12.70
2018-11-06T11:45:34.053Z,12.80
2018-11-06T11:48:02.292Z,12.80
2018-11-06T11:50:30.597Z,12.90
2018-11-06T11:52:58.744Z,12.90
2018-11-06T11:55:27.191Z,12.70
2018-11-06T11:57:55.476Z,12.70
2018-11-06T12:00:26.845Z,12.60
2018-11-06T12:02:55.541Z,12.70
2018-11-06T12:05:23.769Z,12.70
2018-11-06T12:07:51.924Z,12.70
2018-11-06T12:10:20.075Z,12.70
2018-11-06T12:12:48.224Z,12.80
2018-11-06T12:15:17.498Z,12.80
2018-11-06T12:17:46.409Z,12.90
2018-11-06T12:20:15.310Z,12.90
2018-11-06T12:22:43.451Z,12.90
2018-11-06T12:25:12.288Z,12.90
2018-11-06T12:27:40.255Z,13.00
2018-11-06T12:30:10.140Z,13.00
2018-11-06T12:32:38.982Z,13.10
2018-11-06T12:35:07.826Z,13.10
2018-11-06T12:37:36.101Z,13.20
2018-11-06T12:40:04.473Z,13.20
2018-11-06T12:42:32.596Z,13.20
2018-11-06T12:45:00.753Z,13.10
2018-11-06T12:47:28.912Z,13.20
2018-11-06T12:49:57.322Z,13.20
2018-11-06T12:52:25.516Z,13.30
2018-11-06T12:54:53.655Z,13.20
2018-11-06T12:57:21.865Z,13.30
2018-11-06T12:59:50.008Z,13.30
2018-11-06T13:02:18.157Z,13.30
2018-11-06T13:04:46.280Z,13.40
2018-11-06T13:07:14.425Z,13.40
2018-11-06T13:09:42.624Z,13.40
2018-11-06T13:12:10.777Z,13.40
2018-11-06T13:14:38.964Z,13.50
2018-11-06T13:17:07.190Z,13.50
2018-11-06T13:19:35.336Z,13.50
2018-11-06T13:22:03.677Z,13.50
2018-11-06T13:24:31.900Z,13.50
2018-11-06T13:27:00.068Z,13.60
2018-11-06T13:29:28.253Z,13.60
2018-11-06T13:31:56.373Z,13.60
2018-11-06T13:34:24.634Z,13.70
2018-11-06T13:36:52.737Z,13.70
2018-11-06T13:39:20.902Z,13.70
2018-11-06T13:41:49.041Z,13.70
2018-11-06T13:44:17.529Z,13.80
2018-11-06T13:46:45.288Z,13.90
2018-11-06T13:49:13.490Z,13.90
2018-11-06T13:51:41.618Z,14.00
2018-11-06T13:54:09.768Z,14.00
2018-11-06T13:56:37.954Z,13.90
2018-11-06T13:59:06.136Z,13.90
2018-11-06T14:01:34.429Z,13.90
2018-11-06T14:04:02.575Z,13.90
2018-11-06T14:06:30.696Z,14.00
2018-11-06T14:08:58.845Z,14.00
2018-11-06T14:11:26.980Z,14.00
2018-11-06T14:13:55.111Z,14.00
2018-11-06T14:16:23.244Z,14.10
2018-11-06T14:18:51.386Z,14.10
2018-11-06T14:21:19.513Z,14.10
2018-11-06T14:23:47.653Z,14.10
2018-11-06T14:26:15.792Z,14.10
2018-11-06T14:28:43.965Z,14.10
2018-11-06T14:31:12.097Z,14.10
2018-11-06T14:33:40.258Z,14.10
2018-11-06T14:36:08.429Z,14.10
2018-11-06T14:38:36.617Z,14.10
2018-11-06T14:41:04.858Z,14.10
2018-11-06T14:43:33.040Z,14.00
2018-11-06T14:46:01.160Z,14.00
2018-11-06T14:48:36.136Z,14.00
2018-11-06T14:51:04.262Z,14.00
2018-11-06T14:53:32.424Z,14.00
2018-11-06T14:56:00.909Z,13.90
2018-11-06T14:58:29.104Z,13.90
2018-11-06T15:00:57.263Z,13.80
2018-11-06T15:03:25.404Z,13.90
2018-11-06T15:05:53.548Z,13.90
2018-11-06T15:08:21.718Z,13.80
2018-11-06T15:10:49.852Z,13.80
2018-11-06T15:13:18.217Z,13.70
2018-11-06T15:15:46.475Z,13.60
2018-11-06T15:18:14.683Z,13.50
2018-11-06T15:20:42.980Z,13.50
2018-11-06T15:23:11.074Z,13.40
2018-11-06T15:25:39.243Z,13.40
2018-11-06T15:28:07.570Z,13.30
2018-11-06T15:30:35.768Z,13.30
2018-11-06T15:33:04.012Z,13.20
2018-11-06T15:35:32.272Z,13.10
2018-11-06T15:38:00.544Z,13.00
2018-11-06T15:40:28.752Z,13.00
2018-11-06T15:42:56.923Z,12.90
2018-11-06T15:45:25.068Z,12.90
2018-11-06T15:47:53.242Z,12.80
2018-11-06T15:50:21.761Z,12.70
2018-11-06T15:52:50.864Z,12.70
2018-11-06T15:55:19.256Z,12.60
2018-11-06T15:57:47.653Z,12.50
2018-11-06T16:00:18.196Z,12.50
2018-11-06T16:02:47.140Z,12.50
2018-11-06T16:05:15.533Z,13.00
2018-11-06T16:07:43.729Z,12.50
2018-11-06T16:10:15.211Z,12.40
2018-11-06T16:12:43.839Z,12.40
2018-11-06T16:15:12.029Z,12.30
2018-11-06T16:20:10.168Z,12.40
2018-11-06T16:25:07.980Z,12.30
2018-11-06T16:27:36.144Z,12.30
2018-11-06T16:30:04.558Z,12.40
2018-11-06T16:32:32.704Z,12.40
2018-11-06T16:35:00.885Z,12.40
2018-11-06T16:37:29.015Z,12.40
2018-11-06T16:39:57.199Z,12.40
2018-11-06T16:42:25.344Z,14.70
2018-11-06T16:44:53.496Z,12.50
2018-11-06T16:47:21.652Z,12.50
2018-11-06T16:49:49.836Z,12.50
2018-11-06T16:52:17.988Z,12.50
2018-11-06T16:54:46.215Z,12.50
2018-11-06T16:57:14.364Z,12.50
2018-11-06T16:59:42.561Z,12.40
2018-11-06T17:02:10.738Z,12.40
2018-11-06T17:04:38.949Z,12.30
2018-11-06T17:07:07.124Z,12.40
2018-11-06T17:09:35.637Z,12.40
2018-11-06T17:12:03.889Z,12.30
2018-11-06T17:14:32.026Z,12.30
2018-11-06T17:17:00.195Z,12.30
2018-11-06T17:19:28.324Z,12.30
2018-11-06T17:21:56.454Z,12.30
2018-11-06T17:24:24.617Z,12.30
2018-11-06T17:26:59.540Z,12.30
2018-11-06T17:29:27.713Z,12.00
2018-11-06T17:31:55.893Z,12.20
2018-11-06T17:34:24.064Z,12.20
2018-11-06T17:36:52.192Z,12.10
2018-11-06T17:39:20.354Z,12.10
2018-11-06T17:41:48.470Z,12.00
2018-11-06T17:44:16.607Z,12.00
2018-11-06T17:46:44.761Z,11.90
2018-11-06T17:49:13.049Z,11.70
2018-11-06T17:51:41.184Z,11.60
2018-11-06T17:54:09.339Z,11.60
2018-11-06T17:56:37.492Z,11.50
2018-11-06T17:59:05.948Z,11.60
2018-11-06T18:01:34.137Z,11.70
2018-11-06T18:04:02.444Z,11.70
2018-11-06T18:06:30.507Z,11.70
2018-11-06T18:08:58.780Z,11.70
2018-11-06T18:11:26.834Z,11.50
2018-11-06T18:13:54.990Z,11.50
2018-11-06T18:16:23.181Z,11.40
2018-11-06T18:18:51.315Z,11.30
2018-11-06T18:21:19.482Z,11.30
2018-11-06T18:23:47.645Z,11.20
2018-11-06T18:26:15.775Z,11.20
2018-11-06T18:31:11.856Z,11.00
2018-11-06T18:33:39.999Z,11.00
2018-11-06T18:36:08.182Z,10.90
2018-11-06T18:38:36.380Z,10.90
2018-11-06T18:41:04.626Z,10.90
2018-11-06T18:43:32.828Z,10.80
2018-11-06T18:46:00.991Z,10.80
2018-11-06T18:48:29.177Z,10.80
2018-11-06T18:50:57.304Z,10.80
2018-11-06T18:53:25.519Z,10.80
2018-11-06T18:55:53.605Z,10.80
2018-11-06T18:58:21.784Z,10.80
2018-11-06T19:00:49.911Z,10.70
2018-11-06T19:03:18.076Z,10.80
2018-11-06T19:05:46.274Z,10.70
2018-11-06T19:10:42.383Z,10.70
2018-11-06T19:13:10.575Z,10.70
2018-11-06T19:15:38.691Z,10.60
2018-11-06T19:18:06.848Z,10.60
2018-11-06T19:20:35.044Z,10.60
2018-11-06T19:23:03.543Z,10.60
2018-11-06T19:25:31.666Z,10.50
2018-11-06T19:27:59.815Z,10.50
2018-11-06T19:30:28.014Z,10.50
2018-11-06T19:32:56.127Z,10.50
2018-11-06T19:35:24.289Z,10.50
2018-11-06T19:37:52.459Z,10.40
2018-11-06T19:40:20.613Z,10.30
2018-11-06T19:42:49.199Z,10.40
2018-11-06T19:45:17.369Z,10.30
2018-11-06T19:47:45.538Z,10.30
2018-11-06T19:50:17.128Z,10.30
2018-11-06T19:52:45.283Z,10.20
2018-11-06T19:55:14.440Z,10.20
2018-11-06T19:57:42.639Z,10.20
2018-11-06T20:00:15.430Z,10.10
2018-11-06T20:02:44.956Z,10.10
2018-11-06T20:05:13.177Z,10.00
2018-11-06T20:07:42.419Z,9.90
2018-11-06T20:12:42.379Z,11.20
2018-11-06T20:15:11.921Z,9.80
2018-11-06T20:17:41.207Z,9.80
2018-11-06T20:20:12.702Z,9.80
2018-11-06T20:22:40.828Z,9.80
2018-11-06T20:25:09.488Z,9.80
2018-11-06T20:30:07.861Z,9.80
2018-11-06T20:32:36.053Z,9.80
2018-11-06T20:35:04.518Z,9.70
2018-11-06T20:37:32.861Z,9.80
2018-11-06T20:40:00.914Z,9.70
2018-11-06T20:42:29.059Z,9.70
2018-11-06T20:44:57.192Z,9.70
2018-11-06T20:47:25.317Z,9.80
2018-11-06T20:49:53.752Z,9.70
2018-11-06T20:52:21.753Z,9.70
2018-11-06T20:54:49.923Z,9.60
2018-11-06T20:57:18.045Z,9.60
2018-11-06T20:59:46.262Z,9.70
2018-11-06T21:02:14.509Z,9.70
2018-11-06T21:04:42.679Z,9.70
2018-11-06T21:07:10.792Z,9.80
2018-11-06T21:09:38.945Z,9.80
2018-11-06T21:12:07.128Z,9.80
2018-11-06T21:14:35.296Z,9.80
2018-11-06T21:17:03.464Z,9.80
2018-11-06T21:19:31.660Z,9.80
2018-11-06T21:21:59.821Z,9.80
2018-11-06T21:24:27.969Z,9.80
2018-11-06T21:26:56.203Z,9.80
2018-11-06T21:29:24.251Z,9.80
2018-11-06T21:31:52.391Z,9.80
2018-11-06T21:34:20.540Z,9.80
2018-11-06T21:36:48.852Z,9.90
2018-11-06T21:39:17.066Z,9.80
2018-11-06T21:41:45.185Z,9.80
2018-11-06T21:44:13.287Z,9.80
2018-11-06T21:46:41.439Z,9.80
2018-11-06T21:49:09.593Z,9.80
2018-11-06T21:51:37.728Z,9.70
2018-11-06T21:54:06.559Z,9.70
2018-11-06T21:56:34.777Z,9.70
2018-11-06T21:59:02.922Z,9.60
2018-11-06T22:01:31.085Z,9.60
2018-11-06T22:03:59.256Z,9.60
2018-11-06T22:06:27.368Z,9.60
2018-11-06T22:08:55.500Z,9.60
2018-11-06T22:11:23.712Z,9.60
2018-11-06T22:13:52.965Z,9.50
2018-11-06T22:16:21.132Z,9.60
2018-11-06T22:18:49.308Z,9.60
2018-11-06T22:21:17.484Z,9.60
2018-11-06T22:23:45.620Z,9.50
2018-11-06T22:26:13.788Z,9.60
2018-11-06T22:28:41.953Z,9.60
2018-11-06T22:31:10.157Z,9.60
2018-11-06T22:33:38.285Z,9.70
2018-11-06T22:36:06.456Z,9.70
2018-11-06T22:38:34.602Z,9.80
2018-11-06T22:41:02.805Z,9.70
2018-11-06T22:43:31.012Z,9.70
2018-11-06T22:45:59.137Z,9.60
2018-11-06T22:48:27.279Z,9.60
2018-11-06T22:50:55.405Z,9.50
2018-11-06T22:53:23.597Z,9.50
2018-11-06T22:55:51.721Z,9.50
2018-11-06T22:58:19.864Z,9.50
2018-11-06T23:00:53.364Z,9.50
2018-11-06T23:03:21.525Z,9.50
2018-11-06T23:05:49.742Z,9.50
2018-11-06T23:08:24.001Z,9.60
2018-11-06T23:10:52.239Z,9.60
2018-11-06T23:13:20.504Z,9.60
2018-11-06T23:15:48.716Z,9.60
2018-11-06T23:18:16.892Z,9.60
2018-11-06T23:20:45.036Z,9.60
2018-11-06T23:23:13.332Z,9.50
2018-11-06T23:25:41.478Z,9.50
2018-11-06T23:28:09.647Z,9.50
2018-11-06T23:30:37.806Z,9.50
2018-11-06T23:33:05.979Z,9.40
2018-11-06T23:35:34.255Z,9.40
2018-11-06T23:38:02.367Z,9.40
2018-11-06T23:40:30.580Z,9.40
2018-11-06T23:42:58.736Z,9.40
2018-11-06T23:45:26.887Z,9.40
2018-11-06T23:47:55.028Z,9.40
2018-11-06T23:50:23.163Z,9.40
2018-11-06T23:52:51.347Z,9.40
2018-11-06T23:55:19.532Z,9.30
2018-11-06T23:57:47.761Z,9.40
